Time;durP1;ratioP1;P1;durP2;ratioP2;P2;SDS_P1;SDS_P2;PMS_P1;PMS_P2;Temp;Humidity;BMP_temperature;BMP_pressure;BME280_temperature;BME280_humidity;BME280_pressure;Samples;Min_cycle;Max_cycle;Signal;HPM_P1;HPM_P2
2021/12/07 00:01:48;;;;;;;37.93;19.47;;;1.30;99.90;;;;;;5051433;28;20590;-78
2021/12/07 00:04:15;;;;;;;33.97;19.53;;;1.40;99.90;;;;;;5051421;28;20706;-78
2021/12/07 00:06:41;;;;;;;34.03;19.03;;;1.40;99.90;;;;;;5052820;28;20323;-78
2021/12/07 00:09:11;;;;;;;32.10;17.40;;;1.40;99.90;;;;;;5053355;28;20244;-78
2021/12/07 00:11:36;;;;;;;29.47;16.93;;;1.40;99.90;;;;;;5051913;28;20235;-78
2021/12/07 00:14:11;;;;;;;33.90;18.10;;;1.20;99.90;;;;;;5052589;28;20223;-78
2021/12/07 00:16:37;;;;;;;32.87;18.17;;;1.10;99.90;;;;;;5043355;28;20287;-78
2021/12/07 00:19:04;;;;;;;33.87;18.67;;;1.00;99.90;;;;;;5052486;28;20213;-77
2021/12/07 00:21:30;;;;;;;36.10;18.13;;;1.10;99.90;;;;;;5051266;28;20215;-78
2021/12/07 00:23:55;;;;;;;30.57;16.93;;;1.00;99.90;;;;;;5053156;28;20183;-78
2021/12/07 00:26:21;;;;;;;34.07;18.40;;;0.90;99.90;;;;;;5052644;28;20298;-77
2021/12/07 00:28:48;;;;;;;36.83;18.13;;;1.00;99.90;;;;;;5051804;28;20208;-78
2021/12/07 00:31:26;;;;;;;35.70;19.67;;;1.00;99.90;;;;;;5051265;28;20583;-77
2021/12/07 00:36:33;;;;;;;36.20;19.57;;;1.00;99.90;;;;;;5052169;28;20212;-78
2021/12/07 00:38:58;;;;;;;33.63;18.60;;;0.90;99.90;;;;;;5052456;28;20182;-78
2021/12/07 00:41:24;;;;;;;33.00;17.70;;;0.90;99.90;;;;;;5052027;28;20706;-78
2021/12/07 00:43:49;;;;;;;33.73;17.80;;;0.90;99.90;;;;;;5052206;28;20215;-77
2021/12/07 00:46:15;;;;;;;35.23;18.07;;;0.80;99.90;;;;;;5044591;28;20293;-78
2021/12/07 00:48:40;;;;;;;32.10;17.20;;;0.70;99.90;;;;;;5049103;28;20222;-78
2021/12/07 00:51:06;;;;;;;31.77;18.07;;;0.70;99.90;;;;;;5051644;28;20194;-78
2021/12/07 00:53:32;;;;;;;30.47;17.37;;;0.80;99.90;;;;;;5052171;28;20595;-78
2021/12/07 00:56:02;;;;;;;30.60;16.80;;;0.80;99.90;;;;;;5050857;28;20661;-79
2021/12/07 00:58:29;;;;;;;27.97;15.83;;;0.80;99.90;;;;;;5051896;28;20243;-78
2021/12/07 01:01:06;;;;;;;30.93;16.30;;;0.80;99.90;;;;;;5051971;28;20216;-79
2021/12/07 01:03:33;;;;;;;24.97;15.30;;;0.70;99.90;;;;;;5052033;28;20590;-79
2021/12/07 01:06:17;;;;;;;30.03;14.70;;;0.80;99.90;;;;;;5052614;28;20613;-78
2021/12/07 01:25:08;;;;;;;29.57;15.83;;;0.80;99.90;;;;;;5056226;28;20261;-78
2021/12/07 01:27:34;;;;;;;29.93;16.80;;;0.70;99.90;;;;;;5054747;28;20222;-79
2021/12/07 01:30:11;;;;;;;28.80;15.00;;;0.70;99.90;;;;;;5056492;28;20186;-79
2021/12/07 01:33:04;;;;;;;30.53;16.67;;;0.70;99.90;;;;;;5056286;28;20270;-79
2021/12/07 01:35:46;;;;;;;31.67;15.30;;;0.70;99.90;;;;;;5054200;28;20224;-80
2021/12/07 01:38:29;;;;;;;30.40;15.70;;;0.70;99.90;;;;;;5058338;28;20209;-79
2021/12/07 01:46:39;;;;;;;28.67;14.53;;;0.60;99.90;;;;;;5050286;28;20221;-79
2021/12/07 01:59:50;;;;;;;29.37;15.23;;;0.40;99.90;;;;;;5036990;28;20241;-80
2021/12/07 02:02:18;;;;;;;27.47;14.70;;;0.50;99.90;;;;;;5051524;28;20223;-79
2021/12/07 02:04:45;;;;;;;29.23;16.47;;;0.40;99.90;;;;;;5053378;28;20210;-79
2021/12/07 02:07:10;;;;;;;26.53;15.47;;;0.30;99.90;;;;;;5053476;28;20249;-79
2021/12/07 02:09:40;;;;;;;26.60;13.50;;;0.40;99.90;;;;;;5054534;28;20233;-79
2021/12/07 02:12:06;;;;;;;25.87;14.40;;;0.30;99.90;;;;;;5054330;28;20189;-80
2021/12/07 02:14:33;;;;;;;27.63;14.87;;;0.40;99.90;;;;;;5054833;28;20797;-79
2021/12/07 02:17:03;;;;;;;28.53;15.13;;;0.40;99.90;;;;;;5046550;28;20203;-80
2021/12/07 02:19:28;;;;;;;25.93;15.00;;;0.40;99.90;;;;;;5053238;28;20586;-79
2021/12/07 02:21:56;;;;;;;28.10;14.20;;;0.30;99.90;;;;;;5054944;28;20214;-78
2021/12/07 02:24:22;;;;;;;25.63;15.43;;;0.30;99.90;;;;;;5053668;28;20376;-77
2021/12/07 02:26:47;;;;;;;26.83;15.00;;;0.30;99.90;;;;;;5055053;28;20196;-79
2021/12/07 02:29:14;;;;;;;28.13;15.27;;;0.30;99.90;;;;;;5054673;28;20202;-78
2021/12/07 02:31:40;;;;;;;28.30;14.93;;;0.20;99.90;;;;;;5054450;28;20722;-79
2021/12/07 02:34:06;;;;;;;31.00;16.30;;;0.30;99.90;;;;;;5053706;28;20291;-79
2021/12/07 02:36:32;;;;;;;27.87;15.23;;;0.20;99.90;;;;;;5053310;28;20308;-79
2021/12/07 02:38:58;;;;;;;30.50;16.43;;;0.30;99.90;;;;;;5054913;28;20205;-79
2021/12/07 02:41:24;;;;;;;32.90;15.90;;;0.20;99.90;;;;;;5053121;28;20298;-80
2021/12/07 02:43:49;;;;;;;29.13;15.57;;;0.20;99.90;;;;;;5053455;28;20204;-78
2021/12/07 02:46:15;;;;;;;29.43;16.03;;;0.20;99.90;;;;;;5046674;28;20242;-79
2021/12/07 02:48:41;;;;;;;26.20;14.73;;;0.20;99.90;;;;;;5052308;28;20211;-79
2021/12/07 02:51:06;;;;;;;27.07;15.40;;;0.20;99.90;;;;;;5053627;28;20183;-82
2021/12/07 02:53:34;;;;;;;26.37;14.70;;;0.20;99.90;;;;;;5052857;28;20204;-78
2021/12/07 02:56:01;;;;;;;30.87;15.33;;;0.20;99.90;;;;;;5054382;28;20227;-79
2021/12/07 02:58:27;;;;;;;25.13;13.27;;;0.20;99.90;;;;;;5053953;28;20210;-79
2021/12/07 03:01:03;;;;;;;30.47;15.47;;;0.20;99.90;;;;;;5052908;28;20235;-79
2021/12/07 03:03:33;;;;;;;28.63;15.20;;;0.30;99.90;;;;;;5054083;28;20720;-81
2021/12/07 03:27:55;;;;;;;29.53;16.17;;;0.20;99.90;;;;;;5033490;28;20666;-79
2021/12/07 03:30:21;;;;;;;29.90;16.33;;;0.20;99.90;;;;;;5033726;28;20238;-78
2021/12/07 03:32:47;;;;;;;34.53;17.83;;;0.20;99.90;;;;;;5034530;28;20191;-79
2021/12/07 03:35:13;;;;;;;29.37;16.20;;;0.20;99.90;;;;;;5033278;28;20240;-78
2021/12/07 03:37:38;;;;;;;29.50;16.73;;;0.10;99.90;;;;;;5031564;28;20231;-77
2021/12/07 03:40:05;;;;;;;31.70;16.17;;;0.10;99.90;;;;;;5033565;28;20220;-78
2021/12/07 03:42:30;;;;;;;31.27;16.30;;;0.10;99.90;;;;;;5033134;28;20209;-79
2021/12/07 03:44:56;;;;;;;32.10;16.77;;;0.10;99.90;;;;;;5032128;28;20196;-78
2021/12/07 03:47:22;;;;;;;33.70;18.10;;;0.10;99.90;;;;;;5032285;28;20300;-76
2021/12/07 03:49:47;;;;;;;31.07;16.90;;;0.00;99.90;;;;;;5032976;28;20572;-78
2021/12/07 03:52:12;;;;;;;29.83;16.63;;;0.00;99.90;;;;;;5032994;28;20703;-78
2021/12/07 03:54:38;;;;;;;32.07;17.07;;;0.00;99.90;;;;;;5031652;28;20220;-78
2021/12/07 03:57:04;;;;;;;31.37;16.30;;;0.00;99.90;;;;;;5033749;28;20236;-78
2021/12/07 03:59:29;;;;;;;31.83;16.37;;;0.00;99.90;;;;;;5031335;28;20595;-78
2021/12/07 04:01:55;;;;;;;33.03;17.67;;;0.00;99.90;;;;;;5032879;28;20692;-78
2021/12/07 04:04:20;;;;;;;35.10;17.73;;;0.00;99.90;;;;;;5032877;28;20241;-78
2021/12/07 04:06:46;;;;;;;33.33;17.43;;;0.00;99.90;;;;;;5025260;28;20286;-79
2021/12/07 04:09:11;;;;;;;39.47;18.93;;;0.10;99.90;;;;;;5034214;28;20188;-78
2021/12/07 04:11:37;;;;;;;35.70;19.57;;;0.10;99.90;;;;;;5033181;28;20662;-79
2021/12/07 04:14:02;;;;;;;35.80;18.27;;;0.10;99.90;;;;;;5032467;28;20264;-78
2021/12/07 04:16:28;;;;;;;26.70;14.40;;;0.10;99.90;;;;;;5031328;28;20202;-78
2021/12/07 04:18:54;;;;;;;36.07;18.43;;;0.00;99.90;;;;;;5031077;28;20214;-78
2021/12/07 04:21:19;;;;;;;40.83;20.00;;;0.00;99.90;;;;;;5032530;28;20182;-79
2021/12/07 04:23:45;;;;;;;38.73;19.87;;;0.00;99.90;;;;;;5033526;28;20177;-78
2021/12/07 04:26:12;;;;;;;36.17;21.07;;;0.00;99.90;;;;;;5032303;28;20258;-79
2021/12/07 04:28:38;;;;;;;36.50;19.07;;;0.00;99.90;;;;;;5030836;28;20211;-78
2021/12/07 04:31:05;;;;;;;41.50;19.67;;;0.00;99.90;;;;;;5032560;28;20208;-78
2021/12/07 04:33:31;;;;;;;40.57;22.17;;;0.00;99.90;;;;;;5031099;28;20294;-78
2021/12/07 04:35:57;;;;;;;34.40;17.50;;;0.10;99.90;;;;;;5032765;28;20679;-78
2021/12/07 04:38:23;;;;;;;27.77;14.40;;;0.00;99.90;;;;;;5030651;28;20696;-78
2021/12/07 04:40:49;;;;;;;37.80;19.50;;;0.00;99.90;;;;;;5032445;28;20196;-79
2021/12/07 04:43:14;;;;;;;33.27;18.53;;;0.10;99.90;;;;;;5032421;28;20208;-78
2021/12/07 04:48:34;;;;;;;37.27;20.20;;;0.10;99.90;;;;;;5031954;28;20174;-78
2021/12/07 04:59:11;;;;;;;34.33;19.07;;;0.20;99.90;;;;;;5031955;28;20220;-78
2021/12/07 05:01:36;;;;;;;36.83;18.07;;;0.20;99.90;;;;;;5030453;28;20208;-79
2021/12/07 05:04:09;;;;;;;34.93;18.87;;;0.20;99.90;;;;;;5030683;28;20210;-78
2021/12/07 05:06:40;;;;;;;35.67;19.67;;;0.20;99.90;;;;;;5030795;28;20580;-78
2021/12/07 05:09:27;;;;;;;40.37;20.83;;;0.20;99.90;;;;;;5033556;28;20543;-77
2021/12/07 05:12:16;;;;;;;41.23;20.70;;;0.20;99.90;;;;;;5024935;28;20280;-77
2021/12/07 05:14:39;;;;;;;36.60;19.67;;;0.20;99.90;;;;;;5031433;28;20212;-79
2021/12/07 05:17:26;;;;;;;38.23;19.13;;;0.20;99.90;;;;;;5031867;28;20216;-79
2021/12/07 05:38:57;;;;;;;38.70;20.77;;;0.10;99.90;;;;;;5039298;28;20189;-78
2021/12/07 05:41:24;;;;;;;38.63;22.00;;;0.10;99.90;;;;;;5051703;28;20590;-78
2021/12/07 05:43:50;;;;;;;37.80;19.03;;;0.10;99.90;;;;;;5051540;28;20200;-79
2021/12/07 05:46:16;;;;;;;38.43;19.77;;;0.10;99.90;;;;;;5050235;28;20573;-79
2021/12/07 05:48:42;;;;;;;39.47;21.87;;;0.10;99.90;;;;;;5049992;28;20638;-79
2021/12/07 05:51:07;;;;;;;38.90;20.07;;;0.10;99.90;;;;;;5052130;28;20183;-79
2021/12/07 05:53:34;;;;;;;40.78;22.02;;;0.10;99.90;;;;;;5051192;28;20463;-79
2021/12/07 05:56:01;;;;;;;36.10;20.33;;;0.10;99.90;;;;;;5051505;28;20217;-78
2021/12/07 05:58:26;;;;;;;39.07;19.87;;;0.10;99.90;;;;;;5049231;28;20215;-78
2021/12/07 06:00:57;;;;;;;39.60;19.93;;;0.10;99.90;;;;;;5050151;28;20218;-78
2021/12/07 06:03:24;;;;;;;35.17;20.30;;;0.10;99.90;;;;;;5051228;28;20604;-79
2021/12/07 06:05:49;;;;;;;37.87;20.03;;;0.10;99.90;;;;;;5052161;28;20199;-79
2021/12/07 06:08:14;;;;;;;42.20;20.90;;;0.10;99.90;;;;;;5051557;28;20201;-78
2021/12/07 06:10:40;;;;;;;36.73;20.07;;;0.10;99.90;;;;;;5054636;28;20211;-77
2021/12/07 06:13:06;;;;;;;39.40;20.37;;;0.10;99.90;;;;;;5055023;28;20209;-77
2021/12/07 06:15:34;;;;;;;42.43;21.30;;;0.00;99.90;;;;;;5055113;28;20212;-78
2021/12/07 06:18:00;;;;;;;42.33;21.80;;;0.00;99.90;;;;;;5054913;28;20198;-78
2021/12/07 06:20:26;;;;;;;43.37;21.43;;;0.10;99.90;;;;;;5053571;28;20201;-77
2021/12/07 06:22:51;;;;;;;37.63;21.00;;;0.10;99.90;;;;;;5053754;28;20201;-77
2021/12/07 06:25:17;;;;;;;42.37;21.53;;;0.00;99.90;;;;;;5053378;28;20218;-77
2021/12/07 06:27:43;;;;;;;41.00;22.17;;;0.00;99.90;;;;;;5051168;28;20209;-77
2021/12/07 06:30:11;;;;;;;38.53;18.70;;;0.00;99.90;;;;;;5053275;28;20238;-78
2021/12/07 06:32:36;;;;;;;40.77;21.37;;;0.00;99.90;;;;;;5054509;28;20174;-78
2021/12/07 06:35:03;;;;;;;41.17;20.57;;;-0.10;99.90;;;;;;5054418;28;20223;-77
2021/12/07 06:37:28;;;;;;;38.40;20.83;;;-0.10;99.90;;;;;;5052821;28;20211;-78
2021/12/07 06:39:55;;;;;;;40.80;21.73;;;-0.10;99.90;;;;;;5054082;28;20207;-78
2021/12/07 06:42:21;;;;;;;39.30;20.10;;;-0.10;99.90;;;;;;5054275;28;20664;-76
2021/12/07 06:44:46;;;;;;;40.87;22.03;;;-0.20;99.90;;;;;;5054654;28;20189;-77
2021/12/07 06:47:12;;;;;;;41.67;22.37;;;-0.20;99.90;;;;;;5054098;28;20475;-78
2021/12/07 06:49:37;;;;;;;39.70;21.50;;;-0.20;99.90;;;;;;5052725;28;20204;-78
2021/12/07 06:52:03;;;;;;;44.13;21.97;;;-0.20;99.90;;;;;;5052948;28;20644;-78
2021/12/07 06:54:29;;;;;;;44.37;22.63;;;-0.20;99.90;;;;;;5052572;28;20211;-78
2021/12/07 06:56:55;;;;;;;44.83;22.57;;;-0.10;99.90;;;;;;5054311;28;20270;-78
2021/12/07 06:59:20;;;;;;;43.20;21.93;;;-0.20;99.90;;;;;;5050580;28;20698;-77
2021/12/07 07:01:47;;;;;;;45.07;22.63;;;-0.20;99.90;;;;;;5038461;28;20206;-77
2021/12/07 07:04:14;;;;;;;43.47;21.63;;;-0.20;99.90;;;;;;5052570;28;20221;-77
2021/12/07 07:06:41;;;;;;;47.13;23.23;;;-0.20;99.90;;;;;;5053413;28;20211;-78
2021/12/07 07:09:08;;;;;;;42.03;21.83;;;-0.10;99.90;;;;;;5052928;28;20173;-78
2021/12/07 07:11:34;;;;;;;44.37;22.67;;;-0.10;99.90;;;;;;5053841;28;20207;-78
2021/12/07 07:14:01;;;;;;;42.00;22.87;;;-0.10;99.90;;;;;;5053511;28;20253;-77
2021/12/07 07:16:27;;;;;;;46.10;22.77;;;0.00;99.90;;;;;;5053335;28;20286;-77
2021/12/07 07:18:53;;;;;;;45.97;23.27;;;-0.10;99.90;;;;;;5053334;28;20675;-78
2021/12/07 07:21:18;;;;;;;46.40;23.90;;;0.00;99.90;;;;;;5053141;28;20183;-77
2021/12/07 07:23:44;;;;;;;51.53;24.63;;;0.00;99.90;;;;;;5053534;28;20175;-77
2021/12/07 07:26:09;;;;;;;44.37;24.00;;;0.00;99.90;;;;;;5053569;28;20217;-77
2021/12/07 07:28:35;;;;;;;53.43;25.70;;;0.00;99.90;;;;;;5051236;28;20286;-77
2021/12/07 07:31:04;;;;;;;48.40;24.67;;;0.10;99.90;;;;;;5053370;28;20215;-78
2021/12/07 07:33:29;;;;;;;43.50;21.47;;;0.00;99.90;;;;;;5051763;28;20740;-77
2021/12/07 07:35:55;;;;;;;45.93;24.27;;;0.00;99.90;;;;;;5053511;28;20260;-77
2021/12/07 07:38:20;;;;;;;49.20;22.97;;;0.00;99.90;;;;;;5052829;28;20285;-78
2021/12/07 07:40:47;;;;;;;52.10;26.07;;;0.00;99.90;;;;;;5035354;28;20216;-77
2021/12/07 07:43:16;;;;;;;47.13;24.00;;;0.00;99.90;;;;;;5053548;28;20329;-77
2021/12/07 07:45:44;;;;;;;47.27;24.47;;;0.00;99.90;;;;;;5052654;28;20685;-78
2021/12/07 07:48:10;;;;;;;47.70;23.97;;;0.00;99.90;;;;;;5058456;28;20192;-78
2021/12/07 07:50:36;;;;;;;50.20;25.33;;;0.00;99.90;;;;;;5057074;28;20188;-77
2021/12/07 07:53:03;;;;;;;44.43;23.07;;;0.00;99.90;;;;;;5054521;28;20219;-77
2021/12/07 07:55:28;;;;;;;41.73;23.27;;;0.00;99.90;;;;;;5057934;28;20218;-77
2021/12/07 07:57:54;;;;;;;51.30;24.80;;;0.00;99.90;;;;;;5052075;28;20300;-77
2021/12/07 08:00:21;;;;;;;42.37;24.57;;;0.10;99.90;;;;;;5051107;28;20204;-78
2021/12/07 08:02:47;;;;;;;42.90;23.13;;;0.10;99.90;;;;;;5051715;28;20174;-78
2021/12/07 08:05:13;;;;;;;52.70;26.33;;;0.10;99.90;;;;;;5051486;28;20222;-78
2021/12/07 08:07:39;;;;;;;52.57;24.43;;;0.10;99.90;;;;;;5049380;28;20204;-77
2021/12/07 08:10:08;;;;;;;42.70;22.77;;;0.20;99.90;;;;;;5051306;28;20294;-78
2021/12/07 08:12:34;;;;;;;42.10;23.37;;;0.10;99.90;;;;;;5049127;28;20757;-78
2021/12/07 08:14:59;;;;;;;46.33;23.00;;;0.20;99.90;;;;;;5050101;28;20286;-78
2021/12/07 08:17:25;;;;;;;46.93;23.73;;;0.20;99.90;;;;;;5051069;28;20220;-78
2021/12/07 08:19:50;;;;;;;44.53;23.53;;;0.30;99.90;;;;;;5051143;28;20686;-77
2021/12/07 08:22:16;;;;;;;42.97;22.50;;;0.30;99.90;;;;;;5049954;28;20208;-79
2021/12/07 08:24:42;;;;;;;38.73;21.50;;;0.40;99.90;;;;;;5050777;28;20202;-78
2021/12/07 08:27:07;;;;;;;43.00;22.93;;;0.40;99.90;;;;;;5051489;28;20192;-78
2021/12/07 08:29:33;;;;;;;40.97;21.67;;;0.30;99.90;;;;;;5047471;28;20215;-79
2021/12/07 08:31:58;;;;;;;45.47;22.83;;;0.30;99.90;;;;;;5050822;28;20217;-78
2021/12/07 08:34:23;;;;;;;42.27;20.90;;;0.30;99.90;;;;;;5050144;28;20229;-78
2021/12/07 08:36:49;;;;;;;43.03;22.83;;;0.20;99.90;;;;;;5049955;28;20209;-78
2021/12/07 08:39:15;;;;;;;42.60;21.87;;;0.20;99.90;;;;;;5050755;28;20259;-78
2021/12/07 08:41:41;;;;;;;39.10;21.40;;;0.40;99.90;;;;;;5050304;28;20256;-77
2021/12/07 08:44:07;;;;;;;46.53;21.10;;;0.40;99.90;;;;;;5050147;28;20214;-77
2021/12/07 08:46:32;;;;;;;38.43;20.73;;;0.40;99.90;;;;;;5051087;28;20682;-77
2021/12/07 08:48:59;;;;;;;39.13;20.73;;;0.30;99.90;;;;;;5051877;28;20218;-77
2021/12/07 08:51:24;;;;;;;38.63;19.67;;;0.30;99.90;;;;;;5051932;28;20217;-77
2021/12/07 08:53:57;;;;;;;46.40;22.50;;;0.30;99.90;;;;;;5052797;28;20236;-78
2021/12/07 09:01:51;;;;;;;37.33;20.83;;;0.50;99.90;;;;;;5036945;28;20211;-78
2021/12/07 09:04:20;;;;;;;38.47;20.27;;;0.50;99.90;;;;;;5051892;28;20213;-77
2021/12/07 09:06:46;;;;;;;42.37;21.27;;;0.60;99.90;;;;;;5052147;28;20209;-78
2021/12/07 09:09:12;;;;;;;39.07;22.17;;;0.60;99.90;;;;;;5053375;28;20191;-77
2021/12/07 09:11:38;;;;;;;37.73;20.60;;;0.60;99.90;;;;;;5064905;28;20254;-78
2021/12/07 09:14:04;;;;;;;36.27;19.73;;;0.60;99.90;;;;;;5063190;28;20230;-78
2021/12/07 09:16:29;;;;;;;39.43;20.13;;;0.60;99.90;;;;;;5065269;28;20216;-78
2021/12/07 09:18:55;;;;;;;43.50;21.03;;;0.60;99.90;;;;;;5064972;28;20372;-78
2021/12/07 09:21:20;;;;;;;35.77;20.57;;;0.60;99.90;;;;;;5065054;28;20242;-78
2021/12/07 09:23:46;;;;;;;36.07;18.80;;;0.60;99.90;;;;;;5047282;28;20213;-79
2021/12/07 09:26:12;;;;;;;35.97;19.60;;;0.50;99.90;;;;;;5064121;28;20232;-79
2021/12/07 09:28:39;;;;;;;39.87;20.03;;;0.60;99.90;;;;;;5061107;28;20210;-78
2021/12/07 09:31:07;;;;;;;34.10;18.70;;;0.60;99.90;;;;;;5063007;28;20204;-78
2021/12/07 09:33:33;;;;;;;37.77;20.43;;;0.70;99.90;;;;;;5063772;28;20211;-79
2021/12/07 09:35:59;;;;;;;38.83;20.13;;;0.80;99.90;;;;;;5067277;22;20238;-80
2021/12/07 09:38:25;;;;;;;40.57;20.43;;;0.80;99.90;;;;;;5033868;28;20240;-79
2021/12/07 09:40:52;;;;;;;37.53;20.67;;;0.80;99.90;;;;;;5034171;28;20208;-80
2021/12/07 09:43:18;;;;;;;37.63;19.60;;;0.70;99.90;;;;;;5035741;28;20256;-81
2021/12/07 09:45:44;;;;;;;40.87;20.80;;;0.60;99.90;;;;;;5042321;28;20229;-81
2021/12/07 09:48:12;;;;;;;41.77;21.40;;;0.60;99.90;;;;;;5058857;28;20771;-79
2021/12/07 09:50:40;;;;;;;42.93;20.93;;;0.70;99.90;;;;;;5058728;28;20555;-80
2021/12/07 09:53:07;;;;;;;37.50;19.70;;;0.70;99.90;;;;;;5060530;28;20211;-80
2021/12/07 09:55:34;;;;;;;42.17;21.70;;;0.80;99.90;;;;;;5059865;28;20253;-81
2021/12/07 09:58:00;;;;;;;37.73;20.13;;;0.70;99.90;;;;;;5055566;28;20227;-79
2021/12/07 10:00:26;;;;;;;38.60;20.27;;;0.70;99.90;;;;;;5058382;28;20652;-80
2021/12/07 10:02:53;;;;;;;34.67;19.57;;;0.70;99.90;;;;;;5057528;28;20267;-80
2021/12/07 10:05:20;;;;;;;38.00;20.93;;;0.70;99.90;;;;;;5057691;28;20219;-79
2021/12/07 10:07:50;;;;;;;37.20;19.80;;;0.80;99.90;;;;;;5056851;28;20692;-81
2021/12/07 10:10:31;;;;;;;38.67;20.77;;;0.80;99.90;;;;;;5057301;28;20211;-80
2021/12/07 10:12:58;;;;;;;38.90;20.33;;;0.80;99.90;;;;;;5045271;28;20208;-80
2021/12/07 10:15:24;;;;;;;41.93;21.83;;;0.90;99.90;;;;;;5058408;28;20759;-80
2021/12/07 10:18:12;;;;;;;41.27;21.27;;;0.90;99.90;;;;;;5059325;28;20199;-79
2021/12/07 10:20:42;;;;;;;42.27;21.77;;;0.90;99.90;;;;;;5059552;28;20224;-80
2021/12/07 10:23:14;;;;;;;40.27;21.23;;;0.90;99.90;;;;;;5057987;28;20624;-80
2021/12/07 10:25:51;;;;;;;44.13;23.07;;;0.80;99.90;;;;;;5059183;28;20265;-80
2021/12/07 10:28:43;;;;;;;43.10;21.13;;;0.80;99.90;;;;;;5055195;28;20208;-80
2021/12/07 10:31:08;;;;;;;42.47;20.77;;;0.70;99.90;;;;;;5047450;28;20205;-79
2021/12/07 10:33:43;;;;;;;45.83;23.07;;;0.70;99.90;;;;;;5056665;28;20219;-80
2021/12/07 10:36:19;;;;;;;46.30;22.17;;;0.70;99.90;;;;;;5057260;28;20282;-80
2021/12/07 10:39:10;;;;;;;47.77;23.20;;;0.80;99.90;;;;;;5056034;28;20686;-79
2021/12/07 10:41:46;;;;;;;39.33;19.47;;;0.80;99.90;;;;;;5056122;28;20217;-79
2021/12/07 10:44:15;;;;;;;40.03;21.40;;;0.90;99.90;;;;;;5055673;28;20208;-79
2021/12/07 10:46:52;;;;;;;45.07;23.33;;;0.90;99.90;;;;;;5055199;28;20212;-80
2021/12/07 10:49:20;;;;;;;39.87;21.20;;;0.80;99.90;;;;;;5055334;28;20709;-80
2021/12/07 10:52:09;;;;;;;40.43;21.80;;;0.80;99.90;;;;;;5039499;28;20240;-79
2021/12/07 10:54:45;;;;;;;43.87;22.50;;;0.80;99.90;;;;;;5056294;28;20223;-80
2021/12/07 10:57:14;;;;;;;40.67;22.30;;;0.90;99.90;;;;;;5056159;28;20557;-80
2021/12/07 11:00:00;;;;;;;43.60;23.67;;;1.00;99.90;;;;;;5055663;28;20651;-80
2021/12/07 11:02:30;;;;;;;44.43;23.37;;;1.00;99.90;;;;;;5057736;28;20279;-80
2021/12/07 11:04:57;;;;;;;46.83;22.90;;;1.00;99.90;;;;;;5055457;28;20721;-80
2021/12/07 11:07:25;;;;;;;47.00;23.87;;;1.00;99.90;;;;;;5056483;28;20204;-79
2021/12/07 11:10:07;;;;;;;48.10;24.87;;;1.00;99.90;;;;;;5054357;28;20210;-79
2021/12/07 11:12:53;;;;;;;50.30;23.90;;;1.00;99.90;;;;;;5054009;28;20287;-79
2021/12/07 11:15:24;;;;;;;48.30;22.37;;;1.00;99.90;;;;;;5055890;28;20217;-79
2021/12/07 11:18:10;;;;;;;46.77;23.97;;;1.00;99.90;;;;;;5039536;28;20201;-79
2021/12/07 11:20:38;;;;;;;46.27;23.30;;;0.90;99.90;;;;;;5055140;28;20204;-80
2021/12/07 11:23:09;;;;;;;41.27;22.23;;;1.00;99.90;;;;;;5056610;28;20207;-79
2021/12/07 11:31:29;;;;;;;47.47;23.17;;;1.00;99.90;;;;;;5054967;28;20216;-79
2021/12/07 11:34:23;;;;;;;43.33;22.67;;;0.90;99.90;;;;;;5052698;28;20211;-79
2021/12/07 11:36:56;;;;;;;50.57;24.50;;;0.90;99.90;;;;;;5039315;28;20216;-79
2021/12/07 11:39:51;;;;;;;49.80;24.50;;;0.90;99.90;;;;;;5054189;28;20291;-80
2021/12/07 11:42:26;;;;;;;50.47;24.67;;;1.00;99.90;;;;;;5053076;28;20255;-79
2021/12/07 11:45:18;;;;;;;45.70;24.40;;;1.00;99.90;;;;;;5039775;28;20180;-79
2021/12/07 11:47:56;;;;;;;43.40;23.03;;;1.10;99.90;;;;;;5053077;28;20217;-81
2021/12/07 11:50:44;;;;;;;44.77;23.13;;;1.30;99.90;;;;;;5053294;28;20592;-78
2021/12/07 11:53:16;;;;;;;45.43;23.00;;;1.10;99.90;;;;;;5053577;28;20219;-80
2021/12/07 11:55:45;;;;;;;43.70;23.33;;;1.10;99.90;;;;;;5055992;28;20214;-79
2021/12/07 11:58:11;;;;;;;48.67;22.87;;;1.10;99.90;;;;;;5053796;28;20227;-79
2021/12/07 12:00:41;;;;;;;44.87;23.30;;;1.10;99.90;;;;;;5054928;28;20246;-79
2021/12/07 12:03:13;;;;;;;42.03;23.47;;;1.10;99.90;;;;;;5054960;28;20193;-79
2021/12/07 12:05:41;;;;;;;45.80;23.83;;;1.00;99.90;;;;;;5054367;28;20244;-79
2021/12/07 12:08:09;;;;;;;46.73;23.63;;;1.00;99.90;;;;;;5051614;28;20324;-79
2021/12/07 12:10:42;;;;;;;44.00;22.70;;;1.00;99.90;;;;;;5053536;28;20230;-79
2021/12/07 12:13:24;;;;;;;45.60;23.43;;;1.10;99.90;;;;;;5055713;28;20207;-80
2021/12/07 12:16:19;;;;;;;44.13;23.67;;;1.10;99.90;;;;;;5041599;28;20208;-79
2021/12/07 12:19:06;;;;;;;46.23;23.90;;;1.10;99.90;;;;;;5051990;28;20215;-80
2021/12/07 12:21:42;;;;;;;44.57;23.60;;;1.10;99.90;;;;;;5053990;28;20217;-79
2021/12/07 12:24:18;;;;;;;43.63;22.73;;;1.10;99.90;;;;;;5053312;28;20180;-79
2021/12/07 12:26:45;;;;;;;49.00;24.50;;;1.00;99.90;;;;;;5053059;28;20222;-79
2021/12/07 12:29:21;;;;;;;55.07;25.10;;;1.00;99.90;;;;;;5049297;28;20225;-80
2021/12/07 12:31:56;;;;;;;47.40;24.80;;;1.10;99.90;;;;;;5037343;28;20253;-80
2021/12/07 12:34:28;;;;;;;45.63;24.37;;;1.20;99.90;;;;;;5052783;28;20213;-78
2021/12/07 12:36:58;;;;;;;46.57;24.63;;;1.20;99.90;;;;;;5054495;28;20280;-81
2021/12/07 12:39:44;;;;;;;50.67;25.80;;;1.20;99.90;;;;;;5052111;28;20181;-79
2021/12/07 12:42:10;;;;;;;44.70;24.20;;;1.30;99.90;;;;;;5052265;28;20194;-79
2021/12/07 12:44:37;;;;;;;51.07;24.40;;;1.30;99.90;;;;;;5051302;28;20194;-79
2021/12/07 12:47:05;;;;;;;44.73;24.30;;;1.30;99.90;;;;;;5053310;28;20217;-80
2021/12/07 12:49:42;;;;;;;50.47;26.37;;;1.30;99.90;;;;;;5052863;28;20217;-79
2021/12/07 12:52:09;;;;;;;49.30;24.40;;;1.30;99.90;;;;;;5053884;28;20206;-79
2021/12/07 12:54:44;;;;;;;47.40;24.20;;;1.30;99.90;;;;;;5052186;28;20242;-79
2021/12/07 12:57:13;;;;;;;47.97;25.33;;;1.30;99.90;;;;;;5054138;28;20210;-79
2021/12/07 12:59:42;;;;;;;50.73;25.10;;;1.20;99.90;;;;;;5058955;28;20188;-79
2021/12/07 13:02:08;;;;;;;49.07;23.90;;;1.10;99.90;;;;;;5058409;28;20204;-79
2021/12/07 13:04:34;;;;;;;46.60;24.20;;;1.10;99.90;;;;;;5052968;28;20209;-79
2021/12/07 13:09:39;;;;;;;46.07;24.33;;;1.20;99.90;;;;;;5054572;28;20226;-79
2021/12/07 13:12:32;;;;;;;48.03;24.37;;;1.30;99.90;;;;;;5054529;28;20197;-79
2021/12/07 13:15:06;;;;;;;42.37;22.03;;;1.30;99.90;;;;;;5040473;28;20300;-78
2021/12/07 13:17:40;;;;;;;44.07;22.90;;;1.40;99.90;;;;;;5050918;28;20220;-79
2021/12/07 13:20:26;;;;;;;51.07;25.03;;;1.50;99.90;;;;;;5058267;28;20242;-79
2021/12/07 13:23:03;;;;;;;48.43;24.43;;;1.50;99.90;;;;;;5043935;28;20282;-80
2021/12/07 13:25:46;;;;;;;55.70;24.47;;;1.40;99.90;;;;;;5056843;28;20242;-78
2021/12/07 13:28:20;;;;;;;49.53;24.37;;;1.40;99.90;;;;;;5059160;28;20245;-80
2021/12/07 13:30:47;;;;;;;49.63;25.17;;;1.40;99.90;;;;;;5054272;28;20206;-79
2021/12/07 13:33:16;;;;;;;48.93;21.80;;;1.10;99.90;;;;;;5056350;28;20175;-79
2021/12/07 13:35:43;;;;;;;45.53;22.40;;;1.20;99.90;;;;;;5054922;28;20301;-79
2021/12/07 13:38:30;;;;;;;47.50;22.60;;;1.10;99.90;;;;;;5054616;28;20212;-80
2021/12/07 13:41:14;;;;;;;45.23;22.07;;;1.10;99.90;;;;;;5043600;28;20222;-79
2021/12/07 13:43:42;;;;;;;46.70;21.90;;;1.10;99.90;;;;;;5054994;28;20252;-79
2021/12/07 13:46:16;;;;;;;43.93;20.90;;;1.10;99.90;;;;;;5056079;28;20205;-79
2021/12/07 13:48:43;;;;;;;47.90;24.60;;;1.10;99.90;;;;;;5056295;28;20207;-79
2021/12/07 13:51:12;;;;;;;43.57;22.60;;;1.10;99.90;;;;;;5054758;28;20211;-79
2021/12/07 13:53:40;;;;;;;44.83;22.97;;;1.10;99.90;;;;;;5054872;28;20187;-79
2021/12/07 13:56:07;;;;;;;45.03;21.47;;;1.10;99.90;;;;;;5055815;28;20725;-79
2021/12/07 13:58:57;;;;;;;43.83;22.83;;;1.00;99.90;;;;;;5051861;28;20216;-79
2021/12/07 14:01:25;;;;;;;40.90;21.40;;;1.00;99.90;;;;;;5053692;28;20700;-79
2021/12/07 14:03:50;;;;;;;49.07;23.80;;;1.00;99.90;;;;;;5053996;28;20290;-79
2021/12/07 14:06:17;;;;;;;46.40;22.73;;;1.00;99.90;;;;;;5055879;28;20238;-79
2021/12/07 14:08:43;;;;;;;45.90;23.73;;;1.00;99.90;;;;;;5055923;28;20177;-79
2021/12/07 14:11:13;;;;;;;44.07;22.57;;;1.00;99.90;;;;;;5056795;28;20205;-80
2021/12/07 14:13:46;;;;;;;45.50;23.67;;;1.00;99.90;;;;;;5057216;28;20243;-79
2021/12/07 14:16:14;;;;;;;48.30;23.80;;;1.00;99.90;;;;;;5059472;28;20239;-79
2021/12/07 14:18:43;;;;;;;46.73;24.33;;;1.00;99.90;;;;;;5057629;28;20322;-79
2021/12/07 14:21:09;;;;;;;48.87;23.93;;;1.10;99.90;;;;;;5054121;28;20267;-77
2021/12/07 14:23:36;;;;;;;41.67;20.10;;;1.10;99.90;;;;;;5053564;28;20272;-77
2021/12/07 14:26:05;;;;;;;43.30;22.77;;;1.00;99.90;;;;;;5053411;28;20221;-77
2021/12/07 14:28:40;;;;;;;47.77;22.33;;;0.90;99.90;;;;;;5053517;28;20357;-78